Time;durP1;ratioP1;P1;durP2;ratioP2;P2;SDS_P1;SDS_P2;PMS_P1;PMS_P2;Temp;Humidity;BMP_temperature;BMP_pressure;BME280_temperature;BME280_humidity;BME280_pressure;Samples;Min_cycle;Max_cycle;Signal;HPM_P1;HPM_P2
2023/02/15 00:01:09;;;;;;;56.53;23.88;;;;;;;-0.56;100.00;98849.22;5071601;28;20033;-83
2023/02/15 00:03:35;;;;;;;92.18;36.58;;;;;;;-0.66;100.00;98842.16;5057107;28;20468;-82
2023/02/15 00:06:02;;;;;;;78.30;32.45;;;;;;;-0.61;100.00;98854.44;5077674;28;20021;-82
2023/02/15 00:08:27;;;;;;;91.50;36.50;;;;;;;-0.64;100.00;98850.91;5065193;28;20039;-81
2023/02/15 00:10:53;;;;;;;87.78;37.35;;;;;;;-0.70;100.00;98843.91;5056558;28;20411;-82
2023/02/15 00:13:19;;;;;;;92.18;37.15;;;;;;;-0.61;100.00;98854.44;5055166;28;20111;-82
2023/02/15 00:15:44;;;;;;;112.15;39.35;;;;;;;-0.65;100.00;98849.19;5055154;28;20423;-82
2023/02/15 00:18:10;;;;;;;96.60;38.28;;;;;;;-0.58;100.00;98858.81;5064844;28;20036;-81
2023/02/15 00:20:35;;;;;;;100.20;39.17;;;;;;;-0.64;100.00;98849.16;5076440;28;20027;-82
2023/02/15 00:23:01;;;;;;;115.35;40.80;;;;;;;-0.66;100.00;98856.19;5061903;28;20055;-81
2023/02/15 00:25:26;;;;;;;95.43;38.88;;;;;;;-0.55;100.00;98853.56;5066432;28;20092;-82
2023/02/15 00:27:52;;;;;;;103.40;38.92;;;;;;;-0.72;100.00;98823.75;5062828;28;20027;-82
2023/02/15 00:30:17;;;;;;;107.47;40.35;;;;;;;-0.67;100.00;98843.91;5056663;28;20039;-82
2023/02/15 00:32:43;;;;;;;101.93;40.45;;;;;;;-0.60;100.00;98850.06;5070895;28;20106;-83
2023/02/15 00:35:09;;;;;;;102.32;38.22;;;;;;;-0.68;100.00;98841.28;5076763;28;20047;-81
2023/02/15 00:37:34;;;;;;;97.35;37.90;;;;;;;-0.71;100.00;98855.25;5073789;28;20035;-82
2023/02/15 00:40:00;;;;;;;110.82;44.03;;;;;;;-0.69;100.00;98850.91;5059668;28;20450;-83
2023/02/15 00:42:25;;;;;;;98.55;39.33;;;;;;;-0.78;100.00;98845.63;5093176;28;20031;-83
2023/02/15 00:44:51;;;;;;;81.90;34.33;;;;;;;-0.74;100.00;98852.63;5101604;28;20027;-82
2023/02/15 00:47:17;;;;;;;103.70;39.20;;;;;;;-0.82;100.00;98846.47;5073536;28;20035;-82
2023/02/15 00:49:42;;;;;;;133.50;48.38;;;;;;;-0.88;100.00;98849.09;5064760;28;20024;-83
2023/02/15 00:52:08;;;;;;;112.13;43.85;;;;;;;-0.83;100.00;98852.59;5056232;28;20473;-83
2023/02/15 00:54:34;;;;;;;104.68;39.92;;;;;;;-0.86;100.00;98852.56;5063470;28;20032;-81
2023/02/15 00:57:00;;;;;;;92.05;34.50;;;;;;;-0.87;100.00;98857.84;5087964;28;20028;-83
2023/02/15 00:59:25;;;;;;;80.95;31.48;;;;;;;-0.91;100.00;98863.94;5076437;28;20038;-82
2023/02/15 01:01:51;;;;;;;76.13;30.02;;;;;;;-1.13;100.00;98848.09;5071846;28;20094;-83
2023/02/15 01:04:16;;;;;;;67.65;27.50;;;;;;;-1.11;100.00;98862.09;5080654;28;20053;-83
2023/02/15 01:06:42;;;;;;;67.70;26.23;;;;;;;-1.16;100.00;98852.44;5097205;28;20114;-82
2023/02/15 01:09:08;;;;;;;70.78;28.63;;;;;;;-1.19;100.00;98863.81;5084679;28;20551;-83
2023/02/15 01:11:33;;;;;;;66.97;27.05;;;;;;;-1.19;100.00;98860.31;5065927;28;20064;-82
2023/02/15 01:13:59;;;;;;;62.22;25.00;;;;;;;-1.26;100.00;98842.78;5064642;28;20474;-82
2023/02/15 01:16:27;;;;;;;54.90;23.42;;;;;;;-1.20;100.00;98866.44;5075928;28;20035;-83
2023/02/15 01:18:54;;;;;;;58.55;23.73;;;;;;;-1.33;100.00;98857.63;5059638;28;20047;-84
2023/02/15 01:21:22;;;;;;;60.65;24.08;;;;;;;-1.29;100.00;98880.38;5064138;28;20193;-82
2023/02/15 01:23:48;;;;;;;54.55;22.75;;;;;;;-1.25;100.00;98871.66;5071901;28;20070;-82
2023/02/15 01:26:14;;;;;;;53.10;22.58;;;;;;;-1.32;100.00;98863.72;5059705;28;20444;-83
2023/02/15 01:28:40;;;;;;;57.22;24.30;;;;;;;-1.27;100.00;98869.91;5059678;28;20479;-83
2023/02/15 01:31:10;;;;;;;63.80;24.25;;;;;;;-1.26;100.00;98871.66;5081374;28;20398;-82
2023/02/15 01:33:36;;;;;;;58.33;23.60;;;;;;;-1.25;100.00;98873.41;5079386;28;20467;-82
2023/02/15 01:36:02;;;;;;;62.08;27.55;;;;;;;-1.23;100.00;98871.69;5096390;28;20102;-83
2023/02/15 01:38:27;;;;;;;67.07;27.08;;;;;;;-1.16;100.00;98868.19;5088388;28;20406;-82
2023/02/15 01:40:53;;;;;;;76.45;32.22;;;;;;;-1.19;100.00;98858.56;5071681;28;20020;-82
2023/02/15 01:43:19;;;;;;;68.30;26.98;;;;;;;-1.25;100.00;98852.41;5063822;28;20550;-82
2023/02/15 01:45:47;;;;;;;66.68;28.08;;;;;;;-1.22;100.00;98853.28;5078128;28;20110;-85
2023/02/15 01:48:21;;;;;;;61.13;27.48;;;;;;;-1.16;100.00;98857.69;5079339;28;20489;-83
2023/02/15 01:50:58;;;;;;;61.80;26.25;;;;;;;-1.23;100.00;98855.94;5084025;28;20028;-81
2023/02/15 01:53:29;;;;;;;76.30;27.02;;;;;;;-1.27;100.00;98849.78;5092883;28;20023;-83
2023/02/15 01:56:02;;;;;;;70.95;27.48;;;;;;;-1.25;100.00;98852.41;5096768;28;20019;-83
2023/02/15 01:58:29;;;;;;;66.22;26.90;;;;;;;-1.18;100.00;98854.19;5074857;28;20028;-82
2023/02/15 02:00:57;;;;;;;68.38;28.42;;;;;;;-1.18;100.00;98854.19;5059426;28;20032;-82
2023/02/15 02:03:36;;;;;;;62.92;27.33;;;;;;;-1.23;100.00;98850.69;5061631;28;20373;-81
2023/02/15 02:06:01;;;;;;;70.88;28.00;;;;;;;-1.14;100.00;98856.81;5079041;28;20110;-82
2023/02/15 02:08:27;;;;;;;62.30;23.40;;;;;;;-1.25;100.00;98849.78;5078780;28;20131;-83
2023/02/15 02:10:53;;;;;;;49.50;21.35;;;;;;;-1.31;100.00;98847.13;5072218;28;20028;-82
2023/02/15 02:13:18;;;;;;;52.45;22.00;;;;;;;-1.32;100.00;98845.34;5068132;28;20081;-82
2023/02/15 02:16:09;;;;;;;54.55;22.95;;;;;;;-1.32;100.00;98845.34;5078550;28;20479;-83
2023/02/15 02:19:07;;;;;;;51.80;20.85;;;;;;;-1.37;100.00;98854.94;5075138;28;20051;-83
2023/02/15 02:22:08;;;;;;;54.72;21.50;;;;;;;-1.40;100.00;98860.19;5058737;28;20060;-82
2023/02/15 02:24:59;;;;;;;56.75;22.67;;;;;;;-1.33;100.00;98868.13;5050710;28;20102;-82
2023/02/15 02:27:47;;;;;;;57.67;23.20;;;;;;;-1.37;100.00;98861.09;5070862;28;20079;-82
2023/02/15 02:30:32;;;;;;;166.35;53.72;;;;;;;-1.53;100.00;98856.59;5059844;28;20115;-82
2023/02/15 02:33:03;;;;;;;82.70;29.92;;;;;;;-1.54;100.00;98860.13;5078976;28;20415;-82
2023/02/15 02:35:47;;;;;;;112.23;37.30;;;;;;;-1.51;100.00;98872.38;5091841;28;20056;-83
2023/02/15 02:38:31;;;;;;;65.43;25.50;;;;;;;-1.50;100.00;98876.72;5080787;28;20036;-82
2023/02/15 02:41:33;;;;;;;75.38;28.38;;;;;;;-1.51;100.00;98875.00;5075085;28;20035;-82
2023/02/15 02:44:25;;;;;;;85.15;29.52;;;;;;;-1.44;100.00;98882.00;5045184;28;20075;-82
2023/02/15 02:46:54;;;;;;;70.07;28.53;;;;;;;-1.47;100.00;98888.13;5067188;28;20028;-82
2023/02/15 02:49:37;;;;;;;66.95;26.60;;;;;;;-1.50;100.00;98889.84;5057437;28;20267;-81
2023/02/15 02:52:07;;;;;;;65.93;25.35;;;;;;;-1.52;100.00;98895.09;5078064;28;20028;-81
2023/02/15 02:54:34;;;;;;;67.45;26.90;;;;;;;-1.52;100.00;98897.72;5074841;28;20016;-82
2023/02/15 02:57:04;;;;;;;69.55;26.55;;;;;;;-1.50;100.00;98893.34;5060643;28;20108;-82
2023/02/15 02:59:36;;;;;;;65.93;26.52;;;;;;;-1.49;100.00;98899.47;5056198;28;20028;-83
2023/02/15 03:02:16;;;;;;;;;;;;;;;-1.47;100.00;98897.72;5054905;28;20016;-82
2023/02/15 03:04:58;;;;;;;67.13;27.20;;;;;;;-1.62;100.00;98877.53;5062906;28;19908;-82
2023/02/15 03:07:25;;;;;;;68.20;26.75;;;;;;;-1.47;100.00;98895.09;5066846;28;20028;-83
2023/02/15 03:09:55;;;;;;;65.88;27.67;;;;;;;-1.52;100.00;98883.72;5071899;28;20037;-83
2023/02/15 03:12:29;;;;;;;77.25;28.23;;;;;;;-1.45;100.00;98901.25;5060234;28;20472;-82
2023/02/15 03:15:10;;;;;;;76.82;29.52;;;;;;;-1.50;100.00;98892.47;5059301;28;20035;-83
2023/02/15 03:17:47;;;;;;;67.65;28.08;;;;;;;-1.48;100.00;98898.63;5072051;28;20495;-82
2023/02/15 03:20:21;;;;;;;77.25;28.90;;;;;;;-1.63;100.00;98884.50;5053756;28;20124;-83
2023/02/15 03:22:58;;;;;;;76.80;29.83;;;;;;;-1.53;100.00;98898.56;5062745;28;20381;-82
2023/02/15 03:25:28;;;;;;;73.00;29.50;;;;;;;-1.51;100.00;98902.09;5060097;28;20025;-82
2023/02/15 03:27:58;;;;;;;76.95;31.35;;;;;;;-1.55;100.00;98904.69;5089251;28;20028;-82
2023/02/15 03:30:28;;;;;;;78.07;29.17;;;;;;;-1.72;100.00;98887.06;5068398;28;20414;-83
2023/02/15 03:32:53;;;;;;;79.70;32.15;;;;;;;-1.79;100.00;98890.53;5053932;28;20477;-83
2023/02/15 03:35:24;;;;;;;97.32;37.08;;;;;;;-1.82;100.00;98898.38;5055424;28;20024;-81
2023/02/15 03:37:55;;;;;;;87.97;33.05;;;;;;;-1.88;100.00;98911.41;5070059;28;20480;-82
2023/02/15 03:41:09;;;;;;;69.68;29.13;;;;;;;-2.04;100.00;98896.41;5090684;28;20024;-81
2023/02/15 03:43:34;;;;;;;65.47;27.45;;;;;;;-1.88;100.00;98915.78;5069564;28;20169;-83
2023/02/15 03:46:06;;;;;;;68.43;26.70;;;;;;;-1.92;100.00;98912.25;5066468;28;20581;-82
2023/02/15 03:48:39;;;;;;;72.38;28.23;;;;;;;-1.94;100.00;98911.38;5053367;28;20017;-83
2023/02/15 03:53:56;;;;;;;59.88;24.90;;;;;;;-2.08;100.00;98910.34;5082093;28;20031;-83
2023/02/15 03:56:22;;;;;;;55.83;22.33;;;;;;;-2.16;100.00;98919.88;5069704;28;20099;-82
2023/02/15 04:04:23;;;;;;;54.95;23.67;;;;;;;-2.14;100.00;98933.88;5069891;28;21415;-82
2023/02/15 04:06:49;;;;;;;60.97;24.83;;;;;;;-2.15;100.00;98936.50;5069347;28;20047;-83
2023/02/15 04:11:58;;;;;;;59.33;25.30;;;;;;;-2.10;100.00;98945.25;5090081;28;20043;-83
2023/02/15 04:17:09;;;;;;;63.17;24.88;;;;;;;-2.16;100.00;98945.19;5089151;28;20594;-83
2023/02/15 04:25:10;;;;;;;106.45;35.25;;;;;;;-2.23;100.00;98947.75;5088366;28;20032;-82
2023/02/15 04:27:36;;;;;;;106.68;36.50;;;;;;;-2.33;100.00;98953.75;5066851;28;20031;-82
2023/02/15 04:30:02;;;;;;;101.15;36.42;;;;;;;-2.22;100.00;98966.97;5072709;28;20035;-82
2023/02/15 04:32:27;;;;;;;107.65;39.20;;;;;;;-2.24;100.00;98959.09;5060012;28;20387;-82
2023/02/15 04:34:53;;;;;;;114.55;37.83;;;;;;;-2.16;100.00;98971.41;5062648;28;20031;-79
2023/02/15 04:37:19;;;;;;;101.32;39.40;;;;;;;-2.37;100.00;98938.00;5054956;28;20559;-79
2023/02/15 04:39:44;;;;;;;130.88;42.58;;;;;;;-2.29;100.00;98970.38;5073186;28;20401;-79
2023/02/15 04:42:10;;;;;;;123.72;45.35;;;;;;;-2.20;100.00;98975.72;5070226;28;20025;-75
2023/02/15 04:44:35;;;;;;;111.45;42.70;;;;;;;-2.13;100.00;98977.56;5079045;28;20494;-75
2023/02/15 04:47:01;;;;;;;127.32;44.25;;;;;;;-2.13;100.00;98987.16;5077861;28;20040;-75
2023/02/15 04:49:26;;;;;;;101.28;42.45;;;;;;;-2.13;100.00;98976.69;5073136;28;20024;-78
2023/02/15 04:51:52;;;;;;;103.72;40.58;;;;;;;-2.25;100.00;98978.31;5090075;28;20027;-79
2023/02/15 04:54:17;;;;;;;98.88;36.65;;;;;;;-2.28;100.00;98977.41;5069105;28;20028;-79
2023/02/15 04:56:43;;;;;;;95.90;38.35;;;;;;;-2.26;100.00;98981.78;5070055;28;20462;-79
2023/02/15 04:59:12;;;;;;;99.15;37.38;;;;;;;-2.27;100.00;98987.00;5067165;28;20024;-78
2023/02/15 05:01:38;;;;;;;83.70;34.47;;;;;;;-2.32;100.00;98981.72;5070799;28;20492;-79
2023/02/15 05:04:03;;;;;;;88.45;34.70;;;;;;;-2.41;100.00;98981.59;5071967;28;20058;-77
2023/02/15 05:06:29;;;;;;;102.32;37.78;;;;;;;-2.38;100.00;98979.03;5057200;28;20108;-79
2023/02/15 05:08:55;;;;;;;78.70;33.15;;;;;;;-2.33;100.00;99003.53;5074829;28;20130;-78
2023/02/15 05:11:20;;;;;;;76.60;29.33;;;;;;;-2.44;100.00;98993.78;5079227;28;20097;-77
2023/02/15 05:13:46;;;;;;;66.25;27.80;;;;;;;-2.41;100.00;98997.31;5080020;28;20033;-79
2023/02/15 05:16:11;;;;;;;74.00;28.42;;;;;;;-2.44;100.00;98991.16;5072480;28;20052;-79
2023/02/15 05:18:37;;;;;;;67.63;28.77;;;;;;;-2.50;100.00;98986.72;5072899;28;20141;-79
2023/02/15 05:21:03;;;;;;;70.68;29.60;;;;;;;-2.44;100.00;98999.03;5101080;28;20036;-79
2023/02/15 05:23:28;;;;;;;80.60;31.20;;;;;;;-2.44;100.00;99006.88;5088589;28;20036;-79
2023/02/15 05:28:38;;;;;;;57.78;23.95;;;;;;;-2.40;100.00;99006.06;5101633;28;20038;-80
2023/02/15 05:31:11;;;;;;;67.07;25.88;;;;;;;-2.36;100.00;99026.19;5077387;28;20103;-80
2023/02/15 05:33:37;;;;;;;91.15;31.05;;;;;;;-2.29;100.00;99028.03;5092540;28;20083;-78
2023/02/15 05:36:03;;;;;;;74.75;28.48;;;;;;;-2.25;100.00;99033.34;5084198;28;20028;-77
2023/02/15 05:38:29;;;;;;;78.95;27.48;;;;;;;-2.19;100.00;99029.91;5082279;28;20125;-79
2023/02/15 05:40:54;;;;;;;79.07;29.30;;;;;;;-2.09;100.00;99021.25;5088050;28;20035;-79
2023/02/15 05:43:20;;;;;;;103.32;38.42;;;;;;;-1.92;100.00;99026.72;5098789;28;20020;-78
2023/02/15 05:45:47;;;;;;;76.95;33.40;;;;;;;-1.88;100.00;99005.81;5070114;28;20071;-77
2023/02/15 05:48:12;;;;;;;83.00;34.92;;;;;;;-1.63;100.00;99025.25;5057272;28;20096;-81
2023/02/15 05:50:38;;;;;;;92.72;34.72;;;;;;;-1.48;100.00;99016.66;5083949;28;20487;-80
2023/02/15 05:53:03;;;;;;;131.43;46.47;;;;;;;-1.36;100.00;99019.41;5076554;28;20088;-80
2023/02/15 05:55:29;;;;;;;99.80;41.17;;;;;;;-1.19;100.00;99036.16;5076157;28;20020;-79
2023/02/15 05:57:54;;;;;;;91.15;37.47;;;;;;;-1.07;100.00;99025.75;5066929;28;21384;-77
2023/02/15 06:00:26;;;;;;;77.32;33.08;;;;;;;-0.99;100.00;99008.34;5089448;28;20424;-79
2023/02/15 06:02:51;;;;;;;56.95;23.48;;;;;;;-0.77;100.00;99027.75;5070326;28;20024;-78
2023/02/15 06:05:17;;;;;;;65.18;28.73;;;;;;;-0.67;100.00;99014.66;5074548;28;20495;-78
2023/02/15 06:07:44;;;;;;;66.93;27.73;;;;;;;-0.59;100.00;99007.72;5055698;28;20119;-79
2023/02/15 06:10:10;;;;;;;65.35;28.15;;;;;;;-0.43;100.00;99015.69;5067080;28;20584;-80
2023/02/15 06:12:36;;;;;;;75.93;30.33;;;;;;;-0.36;100.00;99002.56;5071571;28;20511;-78
2023/02/15 06:15:02;;;;;;;80.57;32.22;;;;;;;-0.32;100.00;99006.06;5079546;28;20028;-78
2023/02/15 06:17:31;;;;;;;77.75;32.63;;;;;;;-0.24;100.00;99001.72;5081118;28;20036;-76
2023/02/15 06:19:56;;;;;;;75.72;33.13;;;;;;;-0.11;100.00;98991.28;5079517;28;20048;-78
2023/02/15 06:22:22;;;;;;;114.70;45.85;;;;;;;0.03;100.00;98986.06;5074299;28;20024;-78
2023/02/15 06:24:48;;;;;;;136.27;54.03;;;;;;;0.18;100.00;98991.38;5082152;28;20441;-77
2023/02/15 06:27:16;;;;;;;140.65;55.78;;;;;;;0.25;100.00;98985.22;5059209;28;20062;-77
2023/02/15 06:29:42;;;;;;;150.48;58.42;;;;;;;0.33;100.00;98978.22;5086390;28;20031;-78
2023/02/15 06:32:07;;;;;;;163.77;63.17;;;;;;;1.58;100.00;99006.22;5080059;28;20036;-77
2023/02/15 06:34:36;;;;;;;156.30;64.55;;;;;;;3.09;100.00;99000.91;5090009;28;20098;-78
2023/02/15 06:37:01;;;;;;;156.73;64.22;;;;;;;4.20;100.00;98944.94;5091277;28;20047;-78
2023/02/15 06:39:27;;;;;;;164.10;61.08;;;;;;;5.60;100.00;98923.03;5060186;28;20472;-79
2023/02/15 06:41:52;;;;;;;116.88;52.47;;;;;;;6.66;95.53;98895.91;5080870;28;20389;-78
2023/02/15 06:44:17;;;;;;;103.53;49.60;;;;;;;7.12;88.01;98861.00;5063493;28;20032;-78
2023/02/15 06:46:43;;;;;;;124.93;56.30;;;;;;;7.91;78.82;98844.50;5080233;28;20024;-79
2023/02/15 06:49:11;;;;;;;145.30;65.30;;;;;;;8.59;71.81;98806.78;5077065;28;20483;-80
2023/02/15 06:51:37;;;;;;;143.73;63.10;;;;;;;8.40;70.91;98771.03;5083757;28;20035;-78
2023/02/15 06:54:02;;;;;;;125.55;57.65;;;;;;;8.60;68.56;98749.88;5061164;28;20024;-78
2023/02/15 06:56:31;;;;;;;134.18;58.60;;;;;;;8.28;68.37;98721.63;5073923;28;20461;-78
2023/02/15 06:58:56;;;;;;;125.95;58.97;;;;;;;8.79;67.56;98729.63;5062852;28;20024;-77
2023/02/15 07:01:22;;;;;;;116.78;53.65;;;;;;;9.31;64.43;98722.34;5082068;28;20020;-76
2023/02/15 07:03:48;;;;;;;92.18;43.65;;;;;;;9.40;63.55;98692.63;5088344;28;20067;-78
2023/02/15 07:06:30;;;;;;;93.50;38.67;;;;;;;9.04;63.81;98684.25;5080983;28;20168;-79
2023/02/15 07:08:57;;;;;;;81.63;38.42;;;;;;;9.36;63.75;98693.66;5082899;28;20481;-77
2023/02/15 07:14:09;;;;;;;107.05;50.33;;;;;;;9.66;61.51;98676.44;5078046;28;20035;-77
2023/02/15 07:16:35;;;;;;;120.20;49.80;;;;;;;10.09;60.09;98676.41;5078654;28;20446;-79
2023/02/15 07:19:00;;;;;;;114.60;50.53;;;;;;;10.21;58.22;98657.22;5069678;28;20526;-79
2023/02/15 07:21:26;;;;;;;107.03;49.65;;;;;;;10.11;58.39;98682.59;5065629;28;20093;-78
2023/02/15 07:23:57;;;;;;;98.13;45.80;;;;;;;10.69;57.20;98689.00;5077106;28;20012;-78
2023/02/15 07:26:23;;;;;;;96.18;49.65;;;;;;;10.52;56.75;98666.59;5071583;28;20040;-79
2023/02/15 07:28:49;;;;;;;105.97;49.80;;;;;;;10.72;56.83;98688.88;5067714;28;20050;-77
2023/02/15 07:31:14;;;;;;;113.55;51.45;;;;;;;10.71;55.16;98659.47;5067221;28;20024;-78
2023/02/15 07:33:40;;;;;;;107.85;51.03;;;;;;;10.84;55.28;98663.34;5056519;28;20024;-77
2023/02/15 07:36:06;;;;;;;105.03;51.45;;;;;;;10.66;56.43;98662.38;5079011;28;20028;-78
2023/02/15 07:38:35;;;;;;;107.50;53.90;;;;;;;10.67;55.64;98655.22;5057390;28;20452;-78
2023/02/15 07:41:03;;;;;;;115.72;55.88;;;;;;;10.54;56.07;98657.56;5078016;28;20024;-78
2023/02/15 07:43:29;;;;;;;118.85;55.20;;;;;;;10.94;55.16;98662.00;5090450;28;20020;-79
2023/02/15 07:45:59;;;;;;;109.43;53.85;;;;;;;11.05;54.35;98651.66;5083993;28;20048;-78
2023/02/15 07:48:25;;;;;;;120.93;53.78;;;;;;;10.17;56.35;98631.56;5070163;28;20025;-78
2023/02/15 07:50:50;;;;;;;120.72;53.28;;;;;;;10.49;56.48;98648.00;5061820;28;20111;-77
2023/02/15 07:53:16;;;;;;;110.93;51.67;;;;;;;10.75;55.58;98653.06;5079081;28;20492;-78
2023/02/15 07:55:41;;;;;;;109.43;51.80;;;;;;;11.31;54.83;98664.72;5077764;28;20024;-77
2023/02/15 07:58:07;;;;;;;100.13;46.17;;;;;;;11.70;53.61;98658.41;5073355;28;20396;-78
2023/02/15 08:00:55;;;;;;;100.50;47.75;;;;;;;11.76;53.77;98647.41;5057850;28;20032;-78
2023/02/15 08:03:17;;;;;;;103.88;52.22;;;;;;;12.38;51.56;98649.59;5078284;28;20028;-78
2023/02/15 08:05:44;;;;;;;91.50;45.97;;;;;;;12.84;50.57;98666.84;5065911;28;20024;-79
2023/02/15 08:08:29;;;;;;;95.35;48.00;;;;;;;12.77;50.06;98665.44;5086143;28;20050;-77
2023/02/15 08:13:55;;;;;;;87.20;42.28;;;;;;;12.84;49.88;98683.84;5079997;28;20051;-78
2023/02/15 08:16:34;;;;;;;73.07;37.58;;;;;;;12.07;50.75;98679.81;5070674;28;20115;-77
2023/02/15 08:19:04;;;;;;;67.32;33.85;;;;;;;12.38;51.04;98696.09;5091232;28;20043;-77
2023/02/15 08:21:31;;;;;;;71.32;35.22;;;;;;;12.86;49.76;98691.81;5080742;28;20538;-78
2023/02/15 08:23:57;;;;;;;63.83;32.35;;;;;;;13.44;48.55;98690.44;5093451;28;20018;-77
2023/02/15 08:26:23;;;;;;;57.00;30.98;;;;;;;14.08;47.00;98694.88;5068036;28;20073;-77
2023/02/15 08:28:50;;;;;;;53.80;27.83;;;;;;;14.11;46.81;98681.25;5067882;28;20019;-76
2023/02/15 08:31:16;;;;;;;49.65;25.95;;;;;;;12.54;49.26;98657.75;5060197;28;20556;-78
2023/02/15 08:33:43;;;;;;;49.50;26.63;;;;;;;11.57;51.67;98684.91;5063699;28;20028;-77
2023/02/15 08:36:13;;;;;;;57.65;28.20;;;;;;;12.59;50.40;98699.50;5080569;28;20383;-78
2023/02/15 08:38:39;;;;;;;53.17;26.65;;;;;;;13.06;49.35;98702.38;5073445;28;20036;-78
2023/02/15 08:41:14;;;;;;;50.13;26.58;;;;;;;13.54;48.21;98702.41;5091773;28;20438;-78
2023/02/15 08:43:39;;;;;;;50.92;25.60;;;;;;;14.47;46.29;98714.13;5069246;28;20016;-77
2023/02/15 08:46:06;;;;;;;49.20;25.20;;;;;;;14.76;45.60;98707.03;5066419;28;20502;-77
2023/02/15 08:48:32;;;;;;;53.10;26.02;;;;;;;15.25;44.87;98704.88;5074694;28;20030;-77
2023/02/15 08:50:57;;;;;;;56.55;27.00;;;;;;;15.20;44.38;98698.88;5089792;28;20406;-76
2023/02/15 08:53:23;;;;;;;45.63;27.05;;;;;;;15.24;44.05;98688.78;5077244;28;20099;-76
2023/02/15 08:55:58;;;;;;;49.35;27.33;;;;;;;14.96;44.52;98686.94;5073101;28;20391;-76
2023/02/15 08:58:24;;;;;;;53.92;25.75;;;;;;;15.45;43.94;98695.53;5073819;28;20081;-78
2023/02/15 09:00:50;;;;;;;48.88;24.00;;;;;;;14.22;45.80;98678.78;5088837;28;20039;-77
2023/02/15 09:03:16;;;;;;;45.03;23.13;;;;;;;14.56;45.57;98700.13;5077538;28;20107;-77
2023/02/15 09:05:41;;;;;;;45.92;23.33;;;;;;;15.72;43.31;98691.09;5055798;28;20085;-76
2023/02/15 09:08:07;;;;;;;48.53;23.90;;;;;;;15.84;42.60;98675.97;5103373;28;20027;-76
2023/02/15 09:10:32;;;;;;;40.95;21.80;;;;;;;14.46;44.87;98666.59;5077960;28;20528;-77
2023/02/15 09:12:58;;;;;;;48.03;23.10;;;;;;;15.40;43.57;98678.78;5087016;28;20023;-75
2023/02/15 09:15:23;;;;;;;41.65;22.25;;;;;;;15.94;42.63;98674.38;5079178;28;20027;-75
2023/02/15 09:17:49;;;;;;;41.00;22.65;;;;;;;16.07;42.10;98669.91;5064675;28;20035;-76
2023/02/15 09:20:15;;;;;;;39.08;21.77;;;;;;;15.45;42.83;98661.34;5068005;28;20104;-76
2023/02/15 09:22:40;;;;;;;39.20;22.48;;;;;;;15.31;43.52;98649.69;5099777;28;20103;-75
2023/02/15 09:25:06;;;;;;;48.95;23.23;;;;;;;16.85;41.64;98687.16;5088573;28;20054;-76
2023/02/15 09:27:31;;;;;;;51.35;27.05;;;;;;;17.70;39.80;98677.41;5076377;28;20039;-76
2023/02/15 09:29:57;;;;;;;46.38;25.05;;;;;;;18.04;38.93;98661.41;5092259;28;20023;-77
2023/02/15 09:32:22;;;;;;;43.15;25.80;;;;;;;17.91;38.36;98653.31;5069591;28;20024;-76
2023/02/15 09:34:48;;;;;;;59.05;31.55;;;;;;;18.33;38.35;98651.97;5080027;28;20039;-76
2023/02/15 09:37:14;;;;;;;70.05;34.50;;;;;;;18.78;37.86;98655.72;5077310;28;20471;-76
2023/02/15 09:39:41;;;;;;;52.08;27.00;;;;;;;18.59;37.79;98641.88;5075982;28;20476;-76
2023/02/15 09:42:28;;;;;;;51.70;28.70;;;;;;;18.77;37.81;98643.16;5094417;28;20038;-77
2023/02/15 09:45:14;;;;;;;50.42;28.23;;;;;;;19.31;36.66;98643.38;5096308;28;20085;-77
2023/02/15 09:48:02;;;;;;;58.00;29.08;;;;;;;19.00;36.34;98615.13;5069454;28;20081;-77
2023/02/15 09:50:33;;;;;;;59.80;28.25;;;;;;;19.31;35.82;98618.97;5102394;28;20492;-76
2023/02/15 09:53:01;;;;;;;25.90;14.40;;;;;;;17.41;36.47;98556.03;5102484;28;20039;-77
2023/02/15 09:55:42;;;;;;;24.33;14.45;;;;;;;16.76;38.16;98585.97;5078518;28;20020;-76
2023/02/15 09:58:37;;;;;;;52.40;27.33;;;;;;;18.49;36.18;98625.44;5095588;28;20024;-76
2023/02/15 10:01:25;;;;;;;80.47;34.63;;;;;;;19.65;34.81;98626.13;5068883;28;20042;-76
2023/02/15 10:03:55;;;;;;;91.75;42.22;;;;;;;20.10;34.26;98634.19;5053135;28;20076;-76
2023/02/15 10:06:41;;;;;;;30.25;16.80;;;;;;;21.11;32.82;98630.94;5093353;28;20031;-76
2023/02/15 10:09:06;;;;;;;38.65;20.63;;;;;;;21.09;32.51;98611.16;5110369;28;20111;-77
2023/02/15 10:11:44;;;;;;;24.48;14.93;;;;;;;19.49;33.58;98574.06;5095372;28;20110;-77
2023/02/15 10:14:15;;;;;;;38.30;14.82;;;;;;;19.78;33.91;98583.38;5079025;28;20059;-76
2023/02/15 10:17:02;;;;;;;28.30;13.48;;;;;;;19.86;33.78;98578.22;5067212;28;20028;-77
2023/02/15 10:19:27;;;;;;;22.40;11.25;;;;;;;17.83;35.25;98528.50;5083681;28;20048;-76
2023/02/15 10:22:03;;;;;;;21.05;13.05;;;;;;;18.24;35.32;98538.91;5075105;28;20402;-75
2023/02/15 10:24:59;;;;;;;33.72;13.68;;;;;;;19.50;34.41;98570.38;5093083;28;20035;-75
2023/02/15 10:27:31;;;;;;;20.00;12.55;;;;;;;19.74;33.78;98565.66;5076517;28;20100;-76
2023/02/15 10:30:12;;;;;;;18.57;10.80;;;;;;;19.31;33.66;98529.41;5072498;28;20157;-77
2023/02/15 10:32:59;;;;;;;21.15;12.25;;;;;;;17.22;35.98;98486.19;5069094;28;20031;-76
2023/02/15 10:35:54;;;;;;;23.17;12.98;;;;;;;16.63;37.30;98477.88;5076977;28;20024;-74
2023/02/15 10:38:40;;;;;;;24.63;12.35;;;;;;;16.58;37.70;98501.63;5092383;28;20023;-75
2023/02/15 10:41:36;;;;;;;28.98;12.95;;;;;;;17.79;36.35;98530.56;5078796;28;20071;-75
2023/02/15 10:44:05;;;;;;;20.55;12.57;;;;;;;18.86;34.88;98547.53;5098607;28;20540;-77
2023/02/15 10:46:40;;;;;;;15.00;8.68;;;;;;;17.87;35.74;98501.06;5074684;28;20031;-76
2023/02/15 10:49:27;;;;;;;38.45;21.60;;;;;;;18.88;34.26;98527.47;5074733;28;20055;-77
2023/02/15 10:51:52;;;;;;;18.48;10.27;;;;;;;19.74;33.29;98535.78;5106023;28;20023;-76
2023/02/15 10:54:36;;;;;;;18.25;10.02;;;;;;;20.50;32.66;98553.75;5104962;28;20030;-77
2023/02/15 10:57:25;;;;;;;15.75;9.02;;;;;;;19.98;31.97;98498.41;5087019;28;20028;-76
2023/02/15 11:00:13;;;;;;;14.65;9.18;;;;;;;20.67;31.46;98528.72;5087144;28;20035;-76
2023/02/15 11:02:51;;;;;;;16.15;10.30;;;;;;;21.27;31.31;98540.63;5083905;28;20024;-76
2023/02/15 11:05:20;;;;;;;17.92;9.93;;;;;;;21.57;30.63;98540.56;5092755;28;20498;-76
2023/02/15 11:07:47;;;;;;;17.63;11.00;;;;;;;21.69;30.19;98528.56;5077562;28;20031;-77
2023/02/15 11:10:28;;;;;;;32.45;12.00;;;;;;;21.96;30.47;98528.81;5087743;28;20376;-76
2023/02/15 11:12:55;;;;;;;15.27;9.30;;;;;;;20.65;31.13;98473.56;5097597;28;20376;-75
2023/02/15 11:15:29;;;;;;;26.95;12.38;;;;;;;19.96;33.22;98484.06;5077688;28;20071;-74
2023/02/15 11:18:08;;;;;;;18.25;11.25;;;;;;;20.65;32.00;98505.34;5112879;28;20030;-75
2023/02/15 11:20:38;;;;;;;23.30;13.95;;;;;;;21.65;30.58;98527.13;5077228;28;20054;-75
2023/02/15 11:23:15;;;;;;;21.70;13.10;;;;;;;21.45;31.01;98499.00;5063753;28;20008;-76
2023/02/15 11:25:40;;;;;;;22.38;12.60;;;;;;;21.08;31.29;98492.38;5076254;28;20059;-75
2023/02/15 11:28:18;;;;;;;15.38;9.65;;;;;;;20.77;31.42;98468.91;5077429;28;20427;-75
2023/02/15 11:30:47;;;;;;;63.10;30.83;;;;;;;21.91;30.35;98501.09;5091729;28;20073;-76
2023/02/15 11:33:22;;;;;;;16.40;10.95;;;;;;;22.25;29.91;98503.38;5071925;28;20023;-75
2023/02/15 11:36:18;;;;;;;18.30;10.73;;;;;;;21.65;30.64;98489.00;5083347;28;20032;-75
2023/02/15 11:38:44;;;;;;;16.58;10.48;;;;;;;21.51;30.74;98476.66;5092882;28;20056;-75
2023/02/15 11:41:14;;;;;;;17.05;10.80;;;;;;;20.65;31.40;98435.50;5087142;28;20047;-75
2023/02/15 11:44:00;;;;;;;15.88;9.80;;;;;;;21.07;30.97;98464.31;5074867;28;20152;-77
2023/02/15 11:46:25;;;;;;;19.98;11.75;;;;;;;21.98;30.31;98475.00;5076294;28;20027;-77
2023/02/15 11:48:51;;;;;;;18.83;11.32;;;;;;;21.68;31.04;98460.63;5093721;28;20547;-76
2023/02/15 11:51:19;;;;;;;21.30;11.70;;;;;;;21.22;31.44;98442.19;5076994;28;20030;-76
2023/02/15 11:53:45;;;;;;;40.20;19.00;;;;;;;21.70;30.81;98450.44;5093127;28;20055;-76